sensor_id;sensor_type;location;lat;lon;timestamp;temperature;humidity
64685;DHT22;51109;47.414;18.954;2023-05-20T00:00:25;16.40;99.90
64685;DHT22;51109;47.414;18.954;2023-05-20T00:02:51;16.40;99.90
64685;DHT22;51109;47.414;18.954;2023-05-20T00:05:17;16.40;99.90
64685;DHT22;51109;47.414;18.954;2023-05-20T00:07:43;16.30;99.90
64685;DHT22;51109;47.414;18.954;2023-05-20T00:10:09;16.30;99.90
64685;DHT22;51109;47.414;18.954;2023-05-20T00:12:37;16.20;99.90
64685;DHT22;51109;47.414;18.954;2023-05-20T00:15:04;16.20;99.90
64685;DHT22;51109;47.414;18.954;2023-05-20T00:17:30;16.20;99.90
64685;DHT22;51109;47.414;18.954;2023-05-20T00:19:56;16.20;99.90
64685;DHT22;51109;47.414;18.954;2023-05-20T00:22:24;16.10;99.90
64685;DHT22;51109;47.414;18.954;2023-05-20T00:24:50;16.10;99.90
64685;DHT22;51109;47.414;18.954;2023-05-20T00:27:16;16.20;99.90
64685;DHT22;51109;47.414;18.954;2023-05-20T00:29:42;16.10;99.90
64685;DHT22;51109;47.414;18.954;2023-05-20T00:32:08;16.10;99.90
64685;DHT22;51109;47.414;18.954;2023-05-20T00:34:33;16.10;99.90
64685;DHT22;51109;47.414;18.954;2023-05-20T00:36:59;16.10;99.90
64685;DHT22;51109;47.414;18.954;2023-05-20T00:39:25;16.00;99.90
64685;DHT22;51109;47.414;18.954;2023-05-20T00:41:51;16.00;99.90
64685;DHT22;51109;47.414;18.954;2023-05-20T00:44:17;16.00;99.90
64685;DHT22;51109;47.414;18.954;2023-05-20T00:46:48;16.00;99.90
64685;DHT22;51109;47.414;18.954;2023-05-20T00:49:14;16.00;99.90
64685;DHT22;51109;47.414;18.954;2023-05-20T00:51:40;16.00;99.90
64685;DHT22;51109;47.414;18.954;2023-05-20T00:54:06;16.00;99.90
64685;DHT22;51109;47.414;18.954;2023-05-20T00:56:32;16.00;99.90
64685;DHT22;51109;47.414;18.954;2023-05-20T00:58:58;16.00;99.90
64685;DHT22;51109;47.414;18.954;2023-05-20T01:01:24;15.90;99.90
64685;DHT22;51109;47.414;18.954;2023-05-20T01:03:51;15.90;99.90
64685;DHT22;51109;47.414;18.954;2023-05-20T01:06:17;15.90;99.90
64685;DHT22;51109;47.414;18.954;2023-05-20T01:08:43;15.80;99.90
64685;DHT22;51109;47.414;18.954;2023-05-20T01:11:14;15.70;99.90
64685;DHT22;51109;47.414;18.954;2023-05-20T01:13:49;15.70;99.90
64685;DHT22;51109;47.414;18.954;2023-05-20T01:16:17;15.70;99.90
64685;DHT22;51109;47.414;18.954;2023-05-20T01:18:43;15.70;99.90
64685;DHT22;51109;47.414;18.954;2023-05-20T01:21:11;15.70;99.90
64685;DHT22;51109;47.414;18.954;2023-05-20T01:23:39;15.70;99.90
64685;DHT22;51109;47.414;18.954;2023-05-20T01:26:06;15.70;99.90
64685;DHT22;51109;47.414;18.954;2023-05-20T01:28:33;15.60;99.90
64685;DHT22;51109;47.414;18.954;2023-05-20T01:31:00;15.70;99.90
64685;DHT22;51109;47.414;18.954;2023-05-20T01:33:28;15.70;99.90
64685;DHT22;51109;47.414;18.954;2023-05-20T01:35:55;15.70;99.90
64685;DHT22;51109;47.414;18.954;2023-05-20T01:38:22;15.70;99.90
64685;DHT22;51109;47.414;18.954;2023-05-20T01:40:48;15.80;99.90
64685;DHT22;51109;47.414;18.954;2023-05-20T01:43:16;15.80;99.90
64685;DHT22;51109;47.414;18.954;2023-05-20T01:45:43;15.70;99.90
64685;DHT22;51109;47.414;18.954;2023-05-20T01:48:10;15.80;99.90
64685;DHT22;51109;47.414;18.954;2023-05-20T01:50:37;15.80;99.90
64685;DHT22;51109;47.414;18.954;2023-05-20T01:53:03;16.00;99.90
64685;DHT22;51109;47.414;18.954;2023-05-20T01:55:29;16.00;99.90
64685;DHT22;51109;47.414;18.954;2023-05-20T01:57:55;16.00;99.90
64685;DHT22;51109;47.414;18.954;2023-05-20T02:00:21;16.00;99.90
64685;DHT22;51109;47.414;18.954;2023-05-20T02:02:46;16.00;99.90
64685;DHT22;51109;47.414;18.954;2023-05-20T02:05:12;16.00;99.90
64685;DHT22;51109;47.414;18.954;2023-05-20T02:07:38;16.00;99.90
64685;DHT22;51109;47.414;18.954;2023-05-20T02:10:04;16.00;99.90
64685;DHT22;51109;47.414;18.954;2023-05-20T02:12:30;16.00;99.90
64685;DHT22;51109;47.414;18.954;2023-05-20T02:14:56;16.00;99.90
64685;DHT22;51109;47.414;18.954;2023-05-20T02:17:22;16.00;99.90
64685;DHT22;51109;47.414;18.954;2023-05-20T02:19:48;16.00;99.90
64685;DHT22;51109;47.414;18.954;2023-05-20T02:22:14;16.00;99.90
64685;DHT22;51109;47.414;18.954;2023-05-20T02:24:40;16.00;99.90
64685;DHT22;51109;47.414;18.954;2023-05-20T02:27:07;16.00;99.90
64685;DHT22;51109;47.414;18.954;2023-05-20T02:29:33;16.10;99.90
64685;DHT22;51109;47.414;18.954;2023-05-20T02:31:59;16.10;99.90
64685;DHT22;51109;47.414;18.954;2023-05-20T02:34:26;16.00;99.90
64685;DHT22;51109;47.414;18.954;2023-05-20T02:36:52;16.00;99.90
64685;DHT22;51109;47.414;18.954;2023-05-20T02:39:18;16.00;99.90
64685;DHT22;51109;47.414;18.954;2023-05-20T02:41:44;16.00;99.90
64685;DHT22;51109;47.414;18.954;2023-05-20T02:44:10;15.90;99.90
64685;DHT22;51109;47.414;18.954;2023-05-20T02:46:36;15.80;99.90
64685;DHT22;51109;47.414;18.954;2023-05-20T02:49:02;15.80;99.90
64685;DHT22;51109;47.414;18.954;2023-05-20T02:51:28;15.70;99.90
64685;DHT22;51109;47.414;18.954;2023-05-20T02:53:56;15.70;99.90
64685;DHT22;51109;47.414;18.954;2023-05-20T02:56:22;15.70;99.90
64685;DHT22;51109;47.414;18.954;2023-05-20T02:58:49;15.60;99.90
64685;DHT22;51109;47.414;18.954;2023-05-20T03:01:15;15.60;99.90
64685;DHT22;51109;47.414;18.954;2023-05-20T03:03:41;15.50;99.90
64685;DHT22;51109;47.414;18.954;2023-05-20T03:06:07;15.50;99.90
64685;DHT22;51109;47.414;18.954;2023-05-20T03:08:33;15.50;99.90
64685;DHT22;51109;47.414;18.954;2023-05-20T03:10:59;15.40;99.90
64685;DHT22;51109;47.414;18.954;2023-05-20T03:13:25;15.50;99.90
64685;DHT22;51109;47.414;18.954;2023-05-20T03:15:52;15.40;99.90
64685;DHT22;51109;47.414;18.954;2023-05-20T03:18:18;15.40;99.90
64685;DHT22;51109;47.414;18.954;2023-05-20T03:20:45;15.30;99.90
64685;DHT22;51109;47.414;18.954;2023-05-20T03:23:11;15.30;99.90
64685;DHT22;51109;47.414;18.954;2023-05-20T03:25:37;15.30;99.90
64685;DHT22;51109;47.414;18.954;2023-05-20T03:28:04;15.30;99.90
64685;DHT22;51109;47.414;18.954;2023-05-20T03:30:31;15.30;99.90
64685;DHT22;51109;47.414;18.954;2023-05-20T03:32:58;15.30;99.90
64685;DHT22;51109;47.414;18.954;2023-05-20T03:35:24;15.30;99.90
64685;DHT22;51109;47.414;18.954;2023-05-20T03:37:50;15.30;99.90
64685;DHT22;51109;47.414;18.954;2023-05-20T03:40:18;15.30;99.90
64685;DHT22;51109;47.414;18.954;2023-05-20T03:42:45;15.30;99.90
64685;DHT22;51109;47.414;18.954;2023-05-20T03:45:11;15.30;99.90
64685;DHT22;51109;47.414;18.954;2023-05-20T03:47:37;15.20;99.90
64685;DHT22;51109;47.414;18.954;2023-05-20T03:50:03;15.30;99.90
64685;DHT22;51109;47.414;18.954;2023-05-20T03:52:30;15.20;99.90
64685;DHT22;51109;47.414;18.954;2023-05-20T03:54:56;15.20;99.90
64685;DHT22;51109;47.414;18.954;2023-05-20T03:57:22;15.20;99.90
64685;DHT22;51109;47.414;18.954;2023-05-20T03:59:48;15.30;99.90
64685;DHT22;51109;47.414;18.954;2023-05-20T04:02:14;15.30;99.90
64685;DHT22;51109;47.414;18.954;2023-05-20T04:04:39;15.30;99.90
64685;DHT22;51109;47.414;18.954;2023-05-20T04:07:09;15.30;99.90
64685;DHT22;51109;47.414;18.954;2023-05-20T04:09:36;15.30;99.90
64685;DHT22;51109;47.414;18.954;2023-05-20T04:12:02;15.40;99.90
64685;DHT22;51109;47.414;18.954;2023-05-20T04:14:28;15.40;99.90
64685;DHT22;51109;47.414;18.954;2023-05-20T04:16:54;15.50;99.90
64685;DHT22;51109;47.414;18.954;2023-05-20T04:19:20;15.50;99.90
64685;DHT22;51109;47.414;18.954;2023-05-20T04:21:48;15.50;99.90
64685;DHT22;51109;47.414;18.954;2023-05-20T04:24:14;15.50;99.90
64685;DHT22;51109;47.414;18.954;2023-05-20T04:26:40;15.60;99.90
64685;DHT22;51109;47.414;18.954;2023-05-20T04:29:06;15.70;99.90
64685;DHT22;51109;47.414;18.954;2023-05-20T04:31:31;15.70;99.90
64685;DHT22;51109;47.414;18.954;2023-05-20T04:33:57;15.70;99.90
64685;DHT22;51109;47.414;18.954;2023-05-20T04:36:23;15.80;99.90
64685;DHT22;51109;47.414;18.954;2023-05-20T04:38:55;15.90;99.90
64685;DHT22;51109;47.414;18.954;2023-05-20T04:41:21;15.90;99.90
64685;DHT22;51109;47.414;18.954;2023-05-20T04:43:47;15.90;99.90
64685;DHT22;51109;47.414;18.954;2023-05-20T04:46:14;16.00;99.90
64685;DHT22;51109;47.414;18.954;2023-05-20T04:48:41;16.10;99.90
64685;DHT22;51109;47.414;18.954;2023-05-20T04:51:09;16.10;99.90
64685;DHT22;51109;47.414;18.954;2023-05-20T04:53:35;16.20;99.90
64685;DHT22;51109;47.414;18.954;2023-05-20T04:56:01;16.30;99.90
64685;DHT22;51109;47.414;18.954;2023-05-20T04:58:27;16.40;99.90
64685;DHT22;51109;47.414;18.954;2023-05-20T05:00:54;16.50;99.90
64685;DHT22;51109;47.414;18.954;2023-05-20T05:03:21;16.50;99.90
64685;DHT22;51109;47.414;18.954;2023-05-20T05:05:47;16.60;99.90
64685;DHT22;51109;47.414;18.954;2023-05-20T05:08:13;16.70;99.90
64685;DHT22;51109;47.414;18.954;2023-05-20T05:10:39;16.70;99.90
64685;DHT22;51109;47.414;18.954;2023-05-20T05:13:05;16.70;99.90
64685;DHT22;51109;47.414;18.954;2023-05-20T05:15:31;16.80;99.90
64685;DHT22;51109;47.414;18.954;2023-05-20T05:17:57;17.00;99.90
64685;DHT22;51109;47.414;18.954;2023-05-20T05:20:23;17.10;99.90
64685;DHT22;51109;47.414;18.954;2023-05-20T05:22:49;17.20;99.90
64685;DHT22;51109;47.414;18.954;2023-05-20T05:25:16;17.30;99.90
64685;DHT22;51109;47.414;18.954;2023-05-20T05:27:42;17.30;99.90
64685;DHT22;51109;47.414;18.954;2023-05-20T05:30:09;17.50;99.90
64685;DHT22;51109;47.414;18.954;2023-05-20T05:32:36;17.60;99.90
64685;DHT22;51109;47.414;18.954;2023-05-20T05:35:02;17.70;99.90
64685;DHT22;51109;47.414;18.954;2023-05-20T05:37:28;17.70;99.90
64685;DHT22;51109;47.414;18.954;2023-05-20T05:39:54;17.80;99.90
64685;DHT22;51109;47.414;18.954;2023-05-20T05:42:20;17.90;99.90
64685;DHT22;51109;47.414;18.954;2023-05-20T05:44:47;18.00;99.90
64685;DHT22;51109;47.414;18.954;2023-05-20T05:47:13;18.10;99.90
64685;DHT22;51109;47.414;18.954;2023-05-20T05:49:39;18.20;99.90
64685;DHT22;51109;47.414;18.954;2023-05-20T05:52:05;18.40;99.90
64685;DHT22;51109;47.414;18.954;2023-05-20T05:54:31;18.40;99.90
64685;DHT22;51109;47.414;18.954;2023-05-20T05:56:57;18.50;99.90
64685;DHT22;51109;47.414;18.954;2023-05-20T05:59:23;18.60;99.90
64685;DHT22;51109;47.414;18.954;2023-05-20T06:01:49;18.60;99.90
64685;DHT22;51109;47.414;18.954;2023-05-20T06:04:15;18.70;99.90
64685;DHT22;51109;47.414;18.954;2023-05-20T06:06:41;18.80;99.90
64685;DHT22;51109;47.414;18.954;2023-05-20T06:09:06;19.00;99.90
64685;DHT22;51109;47.414;18.954;2023-05-20T06:11:32;19.00;99.90
64685;DHT22;51109;47.414;18.954;2023-05-20T06:13:58;19.00;99.90
64685;DHT22;51109;47.414;18.954;2023-05-20T06:16:24;19.10;99.90
64685;DHT22;51109;47.414;18.954;2023-05-20T06:18:53;19.10;99.90
64685;DHT22;51109;47.414;18.954;2023-05-20T06:21:22;19.10;99.90
64685;DHT22;51109;47.414;18.954;2023-05-20T06:23:49;19.30;99.90
64685;DHT22;51109;47.414;18.954;2023-05-20T06:26:14;19.30;99.90
64685;DHT22;51109;47.414;18.954;2023-05-20T06:28:40;19.40;99.90
64685;DHT22;51109;47.414;18.954;2023-05-20T06:31:06;19.50;99.90
64685;DHT22;51109;47.414;18.954;2023-05-20T06:33:33;19.50;99.90
64685;DHT22;51109;47.414;18.954;2023-05-20T06:35:59;19.70;99.90
64685;DHT22;51109;47.414;18.954;2023-05-20T06:38:26;19.90;99.90
64685;DHT22;51109;47.414;18.954;2023-05-20T06:40:52;20.00;99.90
64685;DHT22;51109;47.414;18.954;2023-05-20T06:43:18;20.00;99.90
64685;DHT22;51109;47.414;18.954;2023-05-20T06:45:44;19.90;99.90
64685;DHT22;51109;47.414;18.954;2023-05-20T06:48:10;19.90;99.90
64685;DHT22;51109;47.414;18.954;2023-05-20T06:50:37;19.90;99.90
64685;DHT22;51109;47.414;18.954;2023-05-20T06:53:02;20.00;99.90
64685;DHT22;51109;47.414;18.954;2023-05-20T06:55:29;20.10;99.90
64685;DHT22;51109;47.414;18.954;2023-05-20T06:57:55;20.10;99.90
64685;DHT22;51109;47.414;18.954;2023-05-20T07:00:21;20.20;99.90
64685;DHT22;51109;47.414;18.954;2023-05-20T07:02:46;20.10;99.90
64685;DHT22;51109;47.414;18.954;2023-05-20T07:05:12;20.30;99.90
64685;DHT22;51109;47.414;18.954;2023-05-20T07:07:38;20.30;99.90
64685;DHT22;51109;47.414;18.954;2023-05-20T07:10:05;20.40;99.90
64685;DHT22;51109;47.414;18.954;2023-05-20T07:12:31;20.50;99.90
64685;DHT22;51109;47.414;18.954;2023-05-20T07:14:57;20.50;99.90
64685;DHT22;51109;47.414;18.954;2023-05-20T07:17:24;20.60;99.90
64685;DHT22;51109;47.414;18.954;2023-05-20T07:19:50;20.60;99.90
64685;DHT22;51109;47.414;18.954;2023-05-20T07:22:15;20.60;99.90
64685;DHT22;51109;47.414;18.954;2023-05-20T07:24:41;20.60;99.90
64685;DHT22;51109;47.414;18.954;2023-05-20T07:27:07;20.70;99.90
64685;DHT22;51109;47.414;18.954;2023-05-20T07:29:34;20.90;99.90
64685;DHT22;51109;47.414;18.954;2023-05-20T07:32:00;20.90;99.90
64685;DHT22;51109;47.414;18.954;2023-05-20T07:34:26;20.90;99.90
64685;DHT22;51109;47.414;18.954;2023-05-20T07:36:52;21.00;99.90
64685;DHT22;51109;47.414;18.954;2023-05-20T07:39:18;21.10;99.90
64685;DHT22;51109;47.414;18.954;2023-05-20T07:41:44;21.10;99.90
64685;DHT22;51109;47.414;18.954;2023-05-20T07:44:10;21.20;99.90
64685;DHT22;51109;47.414;18.954;2023-05-20T07:46:37;21.30;99.90
64685;DHT22;51109;47.414;18.954;2023-05-20T07:49:03;21.50;99.90
64685;DHT22;51109;47.414;18.954;2023-05-20T07:51:30;21.60;99.90
64685;DHT22;51109;47.414;18.954;2023-05-20T07:53:56;21.40;99.90
64685;DHT22;51109;47.414;18.954;2023-05-20T07:56:22;21.40;99.90
64685;DHT22;51109;47.414;18.954;2023-05-20T07:58:56;21.60;99.90
64685;DHT22;51109;47.414;18.954;2023-05-20T08:01:25;21.80;99.90
64685;DHT22;51109;47.414;18.954;2023-05-20T08:03:52;22.00;99.90
64685;DHT22;51109;47.414;18.954;2023-05-20T08:06:18;22.10;99.90
64685;DHT22;51109;47.414;18.954;2023-05-20T08:08:48;22.00;99.90
64685;DHT22;51109;47.414;18.954;2023-05-20T08:11:14;22.10;99.90
64685;DHT22;51109;47.414;18.954;2023-05-20T08:13:41;22.00;99.90
64685;DHT22;51109;47.414;18.954;2023-05-20T08:16:06;22.20;99.90
64685;DHT22;51109;47.414;18.954;2023-05-20T08:18:34;22.40;99.90
64685;DHT22;51109;47.414;18.954;2023-05-20T08:21:01;22.20;99.90
64685;DHT22;51109;47.414;18.954;2023-05-20T08:23:27;22.10;99.90
64685;DHT22;51109;47.414;18.954;2023-05-20T08:25:52;22.30;99.90
64685;DHT22;51109;47.414;18.954;2023-05-20T08:28:18;22.40;99.90
64685;DHT22;51109;47.414;18.954;2023-05-20T08:30:45;22.40;99.90
64685;DHT22;51109;47.414;18.954;2023-05-20T08:33:13;22.30;99.90
64685;DHT22;51109;47.414;18.954;2023-05-20T08:35:39;22.30;99.90
64685;DHT22;51109;47.414;18.954;2023-05-20T08:38:05;22.30;99.90
64685;DHT22;51109;47.414;18.954;2023-05-20T08:40:34;22.40;99.90
64685;DHT22;51109;47.414;18.954;2023-05-20T08:43:01;22.50;99.90
64685;DHT22;51109;47.414;18.954;2023-05-20T08:45:31;22.40;99.90
64685;DHT22;51109;47.414;18.954;2023-05-20T08:47:57;22.40;99.90
64685;DHT22;51109;47.414;18.954;2023-05-20T08:50:23;22.40;99.90
64685;DHT22;51109;47.414;18.954;2023-05-20T08:52:49;22.60;99.90
64685;DHT22;51109;47.414;18.954;2023-05-20T08:55:36;22.70;99.90
64685;DHT22;51109;47.414;18.954;2023-05-20T08:58:03;22.70;99.90
64685;DHT22;51109;47.414;18.954;2023-05-20T09:00:29;22.90;99.90
64685;DHT22;51109;47.414;18.954;2023-05-20T09:02:55;22.90;99.90
64685;DHT22;51109;47.414;18.954;2023-05-20T09:05:21;22.90;99.90
64685;DHT22;51109;47.414;18.954;2023-05-20T09:07:48;22.80;99.90
64685;DHT22;51109;47.414;18.954;2023-05-20T09:10:14;22.90;99.90
64685;DHT22;51109;47.414;18.954;2023-05-20T09:12:40;22.80;99.90
64685;DHT22;51109;47.414;18.954;2023-05-20T09:15:07;22.80;99.90
64685;DHT22;51109;47.414;18.954;2023-05-20T09:17:36;23.00;99.90
64685;DHT22;51109;47.414;18.954;2023-05-20T09:20:08;23.20;99.90
64685;DHT22;51109;47.414;18.954;2023-05-20T09:22:34;23.00;99.90
64685;DHT22;51109;47.414;18.954;2023-05-20T09:25:01;23.10;99.90
64685;DHT22;51109;47.414;18.954;2023-05-20T09:27:27;23.20;99.90
64685;DHT22;51109;47.414;18.954;2023-05-20T09:29:52;23.30;99.90
64685;DHT22;51109;47.414;18.954;2023-05-20T09:32:20;23.50;99.90
64685;DHT22;51109;47.414;18.954;2023-05-20T09:34:48;23.50;99.90
64685;DHT22;51109;47.414;18.954;2023-05-20T09:37:17;23.50;99.90
64685;DHT22;51109;47.414;18.954;2023-05-20T09:39:59;23.50;99.90
64685;DHT22;51109;47.414;18.954;2023-05-20T09:42:51;23.40;99.90
64685;DHT22;51109;47.414;18.954;2023-05-20T09:45:18;23.50;99.90
64685;DHT22;51109;47.414;18.954;2023-05-20T09:47:45;23.60;99.90
64685;DHT22;51109;47.414;18.954;2023-05-20T09:50:11;23.70;99.90
64685;DHT22;51109;47.414;18.954;2023-05-20T09:52:38;23.90;99.90
64685;DHT22;51109;47.414;18.954;2023-05-20T09:55:07;24.10;99.90
64685;DHT22;51109;47.414;18.954;2023-05-20T09:57:36;24.30;99.90
64685;DHT22;51109;47.414;18.954;2023-05-20T10:00:06;24.30;99.90
64685;DHT22;51109;47.414;18.954;2023-05-20T10:02:39;24.50;99.90
64685;DHT22;51109;47.414;18.954;2023-05-20T10:05:11;24.50;99.90
64685;DHT22;51109;47.414;18.954;2023-05-20T10:21:31;24.20;99.90
64685;DHT22;51109;47.414;18.954;2023-05-20T10:24:08;24.50;99.90
64685;DHT22;51109;47.414;18.954;2023-05-20T10:26:38;24.80;99.90
64685;DHT22;51109;47.414;18.954;2023-05-20T10:29:17;24.60;99.90
64685;DHT22;51109;47.414;18.954;2023-05-20T10:31:44;24.70;99.90
64685;DHT22;51109;47.414;18.954;2023-05-20T10:34:20;24.90;99.90
64685;DHT22;51109;47.414;18.954;2023-05-20T10:36:56;24.80;99.90
64685;DHT22;51109;47.414;18.954;2023-05-20T10:39:27;24.70;99.90
64685;DHT22;51109;47.414;18.954;2023-05-20T10:42:08;24.70;99.90
64685;DHT22;51109;47.414;18.954;2023-05-20T10:44:44;24.70;99.90
64685;DHT22;51109;47.414;18.954;2023-05-20T10:47:10;24.80;99.90
64685;DHT22;51109;47.414;18.954;2023-05-20T10:49:40;24.80;99.90
64685;DHT22;51109;47.414;18.954;2023-05-20T10:52:09;24.90;99.90
64685;DHT22;51109;47.414;18.954;2023-05-20T10:54:36;24.90;99.90
64685;DHT22;51109;47.414;18.954;2023-05-20T10:57:07;24.90;99.90
64685;DHT22;51109;47.414;18.954;2023-05-20T10:59:36;24.90;99.90
64685;DHT22;51109;47.414;18.954;2023-05-20T11:02:03;24.90;99.90
64685;DHT22;51109;47.414;18.954;2023-05-20T11:04:29;25.00;99.90
64685;DHT22;51109;47.414;18.954;2023-05-20T11:06:56;25.20;99.90
64685;DHT22;51109;47.414;18.954;2023-05-20T11:09:23;25.30;99.90
64685;DHT22;51109;47.414;18.954;2023-05-20T11:11:52;25.40;99.90
64685;DHT22;51109;47.414;18.954;2023-05-20T11:14:19;25.50;99.90
64685;DHT22;51109;47.414;18.954;2023-05-20T11:16:45;25.50;99.90
64685;DHT22;51109;47.414;18.954;2023-05-20T11:19:15;25.50;99.90
64685;DHT22;51109;47.414;18.954;2023-05-20T11:21:45;25.40;99.90
64685;DHT22;51109;47.414;18.954;2023-05-20T11:24:12;25.60;99.90
64685;DHT22;51109;47.414;18.954;2023-05-20T11:26:39;25.60;99.90
64685;DHT22;51109;47.414;18.954;2023-05-20T11:29:05;25.70;99.90
64685;DHT22;51109;47.414;18.954;2023-05-20T11:31:31;25.50;99.90
64685;DHT22;51109;47.414;18.954;2023-05-20T11:34:00;25.70;99.90
64685;DHT22;51109;47.414;18.954;2023-05-20T11:36:27;25.80;99.90
64685;DHT22;51109;47.414;18.954;2023-05-20T11:38:53;25.70;99.90
64685;DHT22;51109;47.414;18.954;2023-05-20T11:41:26;25.90;99.90
64685;DHT22;51109;47.414;18.954;2023-05-20T11:43:59;25.90;99.90
64685;DHT22;51109;47.414;18.954;2023-05-20T11:46:25;26.00;99.90
64685;DHT22;51109;47.414;18.954;2023-05-20T11:48:55;25.90;99.90
64685;DHT22;51109;47.414;18.954;2023-05-20T11:51:28;25.80;99.90
64685;DHT22;51109;47.414;18.954;2023-05-20T11:54:05;25.70;99.90
64685;DHT22;51109;47.414;18.954;2023-05-20T11:56:35;25.70;99.90
64685;DHT22;51109;47.414;18.954;2023-05-20T11:59:05;25.80;99.90
64685;DHT22;51109;47.414;18.954;2023-05-20T12:01:40;25.80;99.90
64685;DHT22;51109;47.414;18.954;2023-05-20T12:04:06;25.80;99.90
64685;DHT22;51109;47.414;18.954;2023-05-20T12:06:32;25.80;99.90
64685;DHT22;51109;47.414;18.954;2023-05-20T12:09:03;25.70;99.90
64685;DHT22;51109;47.414;18.954;2023-05-20T12:11:36;25.70;99.90
64685;DHT22;51109;47.414;18.954;2023-05-20T12:14:02;25.90;99.90
64685;DHT22;51109;47.414;18.954;2023-05-20T12:16:30;25.90;99.90
64685;DHT22;51109;47.414;18.954;2023-05-20T12:18:56;25.90;99.90
64685;DHT22;51109;47.414;18.954;2023-05-20T12:21:22;26.10;99.90
64685;DHT22;51109;47.414;18.954;2023-05-20T12:23:48;26.10;99.90
64685;DHT22;51109;47.414;18.954;2023-05-20T12:26:14;26.00;99.90
64685;DHT22;51109;47.414;18.954;2023-05-20T12:28:40;25.90;99.90
64685;DHT22;51109;47.414;18.954;2023-05-20T12:31:06;25.80;99.90
64685;DHT22;51109;47.414;18.954;2023-05-20T12:33:32;26.10;99.90
64685;DHT22;51109;47.414;18.954;2023-05-20T12:35:58;25.90;99.90
64685;DHT22;51109;47.414;18.954;2023-05-20T12:38:24;26.00;99.90
64685;DHT22;51109;47.414;18.954;2023-05-20T12:40:50;26.10;99.90
64685;DHT22;51109;47.414;18.954;2023-05-20T12:43:16;26.10;99.90
64685;DHT22;51109;47.414;18.954;2023-05-20T12:45:43;26.00;99.90
64685;DHT22;51109;47.414;18.954;2023-05-20T12:48:09;26.00;99.90
64685;DHT22;51109;47.414;18.954;2023-05-20T12:50:35;26.00;99.90
64685;DHT22;51109;47.414;18.954;2023-05-20T12:53:01;26.10;99.90
64685;DHT22;51109;47.414;18.954;2023-05-20T12:55:27;26.00;99.90
64685;DHT22;51109;47.414;18.954;2023-05-20T12:57:53;26.00;99.90
64685;DHT22;51109;47.414;18.954;2023-05-20T13:00:20;26.00;99.90
64685;DHT22;51109;47.414;18.954;2023-05-20T13:02:46;26.00;99.90
64685;DHT22;51109;47.414;18.954;2023-05-20T13:05:13;26.10;99.90
64685;DHT22;51109;47.414;18.954;2023-05-20T13:07:40;25.90;99.90
64685;DHT22;51109;47.414;18.954;2023-05-20T13:10:06;26.00;99.90
64685;DHT22;51109;47.414;18.954;2023-05-20T13:12:33;26.00;99.90
64685;DHT22;51109;47.414;18.954;2023-05-20T13:14:59;26.20;99.90
64685;DHT22;51109;47.414;18.954;2023-05-20T13:17:26;26.10;99.90
64685;DHT22;51109;47.414;18.954;2023-05-20T13:19:52;26.20;99.90
64685;DHT22;51109;47.414;18.954;2023-05-20T13:22:17;26.50;99.90
64685;DHT22;51109;47.414;18.954;2023-05-20T13:24:44;26.50;99.90
64685;DHT22;51109;47.414;18.954;2023-05-20T13:27:09;26.20;99.90
64685;DHT22;51109;47.414;18.954;2023-05-20T13:29:36;26.20;99.90
64685;DHT22;51109;47.414;18.954;2023-05-20T13:32:02;26.30;99.90
64685;DHT22;51109;47.414;18.954;2023-05-20T13:34:29;26.60;99.90
64685;DHT22;51109;47.414;18.954;2023-05-20T13:36:55;26.50;99.90
64685;DHT22;51109;47.414;18.954;2023-05-20T13:39:20;26.50;99.90
64685;DHT22;51109;47.414;18.954;2023-05-20T13:41:46;26.40;99.90
64685;DHT22;51109;47.414;18.954;2023-05-20T13:44:12;26.40;99.90
64685;DHT22;51109;47.414;18.954;2023-05-20T13:46:38;26.40;99.90
64685;DHT22;51109;47.414;18.954;2023-05-20T13:49:04;26.60;99.90
64685;DHT22;51109;47.414;18.954;2023-05-20T13:51:30;26.50;99.90
64685;DHT22;51109;47.414;18.954;2023-05-20T13:53:56;26.60;99.90
64685;DHT22;51109;47.414;18.954;2023-05-20T13:56:22;26.70;99.90
64685;DHT22;51109;47.414;18.954;2023-05-20T13:58:48;26.80;99.90
64685;DHT22;51109;47.414;18.954;2023-05-20T14:01:14;26.80;99.90
64685;DHT22;51109;47.414;18.954;2023-05-20T14:03:40;26.80;99.90
64685;DHT22;51109;47.414;18.954;2023-05-20T14:06:07;26.70;99.90
64685;DHT22;51109;47.414;18.954;2023-05-20T14:08:32;26.80;99.90
64685;DHT22;51109;47.414;18.954;2023-05-20T14:10:58;26.70;99.90
64685;DHT22;51109;47.414;18.954;2023-05-20T14:13:24;26.50;99.90
64685;DHT22;51109;47.414;18.954;2023-05-20T14:15:51;26.60;99.90
64685;DHT22;51109;47.414;18.954;2023-05-20T14:18:19;26.60;99.90
64685;DHT22;51109;47.414;18.954;2023-05-20T14:20:46;26.60;99.90
64685;DHT22;51109;47.414;18.954;2023-05-20T14:23:12;26.80;99.90
64685;DHT22;51109;47.414;18.954;2023-05-20T14:25:38;26.70;99.90
64685;DHT22;51109;47.414;18.954;2023-05-20T14:28:05;26.50;99.90
64685;DHT22;51109;47.414;18.954;2023-05-20T14:30:31;26.70;99.90
64685;DHT22;51109;47.414;18.954;2023-05-20T14:32:57;26.70;99.90
64685;DHT22;51109;47.414;18.954;2023-05-20T14:35:23;26.80;99.90
64685;DHT22;51109;47.414;18.954;2023-05-20T14:37:48;26.80;99.90
64685;DHT22;51109;47.414;18.954;2023-05-20T14:40:14;26.90;99.90
64685;DHT22;51109;47.414;18.954;2023-05-20T14:42:41;26.70;99.90
64685;DHT22;51109;47.414;18.954;2023-05-20T14:45:07;26.50;99.90
64685;DHT22;51109;47.414;18.954;2023-05-20T14:47:33;26.80;99.90
64685;DHT22;51109;47.414;18.954;2023-05-20T14:49:59;26.80;99.90
64685;DHT22;51109;47.414;18.954;2023-05-20T14:52:25;26.80;99.90
64685;DHT22;51109;47.414;18.954;2023-05-20T14:54:52;26.70;99.90
64685;DHT22;51109;47.414;18.954;2023-05-20T14:57:17;26.30;99.90
64685;DHT22;51109;47.414;18.954;2023-05-20T14:59:43;26.30;99.90
64685;DHT22;51109;47.414;18.954;2023-05-20T15:02:09;26.50;99.90
64685;DHT22;51109;47.414;18.954;2023-05-20T15:04:35;26.20;99.90
64685;DHT22;51109;47.414;18.954;2023-05-20T15:07:01;26.20;99.90
64685;DHT22;51109;47.414;18.954;2023-05-20T15:09:27;26.30;99.90
64685;DHT22;51109;47.414;18.954;2023-05-20T15:11:53;26.60;99.90
64685;DHT22;51109;47.414;18.954;2023-05-20T15:14:19;26.80;99.90
64685;DHT22;51109;47.414;18.954;2023-05-20T15:16:45;26.90;99.90
64685;DHT22;51109;47.414;18.954;2023-05-20T15:19:14;26.90;99.90
64685;DHT22;51109;47.414;18.954;2023-05-20T15:21:39;26.80;99.90
64685;DHT22;51109;47.414;18.954;2023-05-20T15:24:06;26.90;99.90
64685;DHT22;51109;47.414;18.954;2023-05-20T15:26:32;26.90;99.90